• Join FlightAware (Why Join?)
  • Login
  • US Flag 
08:02AM EDT


 

Airport Tracker/Info


-or-


 

Live Flight TrackerFlight Track Log ✈ BJS444 ✈ 23-Apr-2013 ✈ KCVG - KMTJ

Flight Track Log - Related Links

Times and Time Zones

All times are in EDT time to prevent confusion due to time zone crossing. See the BJS444 flight status page for this flight to view local times or setup timezone preferences in your user account.

Time Position Orientation Groundspeed Altitude Reporting Facility
EDT Latitude Longitude Course Direction KTS MPH feet Rate Location/Type
01:37PM 39.0500 -84.6833 210° Southwest 163 188 1,300  Level Cincinnati TRACON
01:38PM 38.9833 -84.7333 210° Southwest 197 227 5,800 3,300 Climbing Cincinnati TRACON
01:41PM 38.8317 -84.8078 201° Southwest 287 330 14,300 3,360 Climbing Indianapolis Center
01:42PM 38.7656 -84.8631 213° Southwest 299 344 17,800 3,540 Climbing Indianapolis Center
01:43PM 38.7353 -84.9744 251° West 310 357 21,700 3,360 Climbing Indianapolis Center
01:44PM 38.7078 -85.0803 252° West 310 357 24,800 2,580 Climbing Indianapolis Center
01:45PM 38.6758 -85.1892 249° West 324 373 27,100 2,100 Climbing Indianapolis Center
01:46PM 38.6450 -85.3056 251° West 342 394 29,200 1,800 Climbing Indianapolis Center
01:47PM 38.6106 -85.4258 250° West 358 412 30,900 1,560 Climbing Indianapolis Center
01:48PM 38.5753 -85.5514 250° West 370 426 32,500 1,560 Climbing Indianapolis Center
01:49PM 38.5378 -85.6789 249° West 381 438 34,200 1,680 Climbing Indianapolis Center
01:50PM 38.5031 -85.8047 251° West 378 435 36,000 1,920 Climbing Indianapolis Center
01:51PM 38.5022 -85.9556 270° West 359 413 38,200 1,800 Climbing Indianapolis Center
01:52PM 38.5061 -86.0764 272° West 341 392 39,700 840 Climbing Indianapolis Center
01:53PM 38.5075 -86.1936 271° West 333 383 40,000 120 Climbing Indianapolis Center
01:54PM 38.5103 -86.3197 272° West 350 403 40,000  Level Indianapolis Center
01:55PM 38.5125 -86.4486 271° West 362 417 40,000  Level Indianapolis Center
01:56PM 38.5153 -86.5772 272° West 362 417 40,000  Level Indianapolis Center
01:57PM 38.5172 -86.7042 271° West 359 413 40,000  Level Indianapolis Center
01:58PM 38.5192 -86.8306 271° West 358 412 40,000  Level Indianapolis Center
01:59PM 38.5219 -86.9803 271° West 355 409 40,000  Level Indianapolis Center
02:00PM 38.5233 -87.1039 271° West 353 406 40,000  Level Indianapolis Center
02:01PM 38.5256 -87.2278 271° West 352 405 40,000  Level Indianapolis Center
02:02PM 38.5272 -87.3525 271° West 353 406 40,000  Level Indianapolis Center
02:03PM 38.5283 -87.4775 271° West 354 407 40,000  Level Indianapolis Center
02:04PM 38.5294 -87.6031 271° West 354 407 40,000  Level Indianapolis Center
02:05PM 38.5311 -87.7556 271° West 356 410 40,000  Level Indianapolis Center
02:06PM 38.5325 -87.8847 271° West 361 415 40,000  Level Indianapolis Center
02:07PM 38.5322 -87.9131 269° West 364 419 40,000  Level Kansas City Center
02:08PM 38.5331 -88.0419 271° West 362 417 40,000  Level Kansas City Center
02:09PM 38.5339 -88.1694 271° West 360 414 40,000  Level Kansas City Center
02:10PM 38.5339 -88.2967 270° West 359 413 40,000  Level Kansas City Center
02:11PM 38.5347 -88.4231 271° West 356 410 40,000  Level Kansas City Center
02:12PM 38.5347 -88.5753 270° West 356 410 40,000  Level Kansas City Center
02:13PM 38.5333 -88.6997 269° West 360 414 40,000  Level Kansas City Center
02:14PM 38.5336 -88.8369 270° West 362 417 40,000  Level Kansas City Center
02:15PM 38.5319 -88.9681 269° West 368 423 40,000  Level Kansas City Center
02:16PM 38.5328 -89.1086 270° West 370 426 40,000  Level Kansas City Center
02:17PM 38.5328 -89.2406 270° West 372 428 40,000  Level Kansas City Center
02:18PM 38.5322 -89.3731 270° West 373 429 40,000  Level Kansas City Center
02:19PM 38.5414 -89.5161 275° West 377 434 40,000  Level Kansas City Center
02:20PM 38.5483 -89.6494 274° West 376 433 40,000  Level Kansas City Center
02:21PM 38.5547 -89.7689 274° West 376 433 40,000  Level Kansas City Center
02:22PM 38.5614 -89.9022 274° West 376 433 40,000  Level Kansas City Center
02:23PM 38.5667 -90.0356 273° West 376 433 40,000  Level Kansas City Center
02:24PM 38.5733 -90.1989 273° West 379 436 40,000  Level Kansas City Center
02:25PM 38.5789 -90.3364 273° West 381 438 40,000  Level Kansas City Center
02:26PM 38.5856 -90.4725 274° West 382 440 40,000  Level Kansas City Center
02:27PM 38.5908 -90.6083 273° West 382 440 40,000  Level Kansas City Center
02:28PM 38.5958 -90.7514 273° West 385 443 40,000  Level Kansas City Center
02:29PM 38.6019 -90.8883 273° West 385 443 40,000  Level Kansas City Center
02:30PM 38.6067 -91.0250 273° West 385 443 40,000  Level Kansas City Center
02:31PM 38.6128 -91.1603 273° West 382 440 40,000  Level Kansas City Center
02:32PM 38.6172 -91.2978 272° West 385 443 40,000  Level Kansas City Center
02:33PM 38.6233 -91.4561 273° West 383 441 40,000  Level Kansas City Center
02:34PM 38.6275 -91.5908 272° West 380 437 40,000  Level Kansas City Center
02:35PM 38.6322 -91.7258 273° West 379 436 40,000  Level Kansas City Center
02:36PM 38.6344 -91.8608 271° West 379 436 40,000  Level Kansas City Center
02:37PM 38.6383 -91.9944 272° West 377 434 40,000  Level Kansas City Center
02:38PM 38.6431 -92.1281 273° West 376 433 40,000  Level Kansas City Center
02:40PM 38.6458 -92.2861 271° West 373 429 40,000  Level Kansas City Center
02:41PM 38.6500 -92.4197 272° West 375 432 40,000  Level Kansas City Center
02:42PM 38.6528 -92.5494 272° West 371 427 40,000  Level Kansas City Center
02:43PM 38.6558 -92.6825 272° West 371 427 40,000  Level Kansas City Center
02:44PM 38.6589 -92.8172 272° West 376 433 40,000  Level Kansas City Center
02:45PM 38.6611 -92.9503 271° West 376 433 40,000  Level Kansas City Center
02:46PM 38.6642 -93.0831 272° West 374 430 40,000  Level Kansas City Center
02:47PM 38.6642 -93.2183 270° West 377 434 40,000  Level Kansas City Center
02:48PM 38.6683 -93.3761 272° West 372 428 40,000  Level Kansas City Center
02:49PM 38.6711 -93.5089 272° West 372 428 40,000  Level Kansas City Center
02:50PM 38.6719 -93.6408 271° West 371 427 40,000  Level Kansas City Center
02:51PM 38.6733 -93.7664 271° West 371 427 40,000  Level Kansas City Center
02:52PM 38.6764 -93.9139 272° West 371 427 40,000  Level Kansas City Center
02:53PM 38.6781 -94.0383 271° West 366 421 40,000  Level Kansas City Center
02:54PM 38.6792 -94.1844 271° West 365 420 40,000  Level Kansas City Center
02:55PM 38.6806 -94.3081 271° West 365 420 40,000  Level Kansas City Center
02:56PM 38.6822 -94.4333 271° West 366 421 40,000  Level Kansas City Center
02:57PM 38.6822 -94.5781 270° West 365 420 40,000  Level Kansas City Center
02:58PM 38.6833 -94.7019 271° West 363 418 40,000  Level Kansas City Center
02:59PM 38.6839 -94.8458 270° West 362 417 40,000  Level Kansas City Center
03:00PM 38.6842 -94.9725 270° West 368 423 40,000  Level Kansas City Center
03:01PM 38.6847 -95.0961 270° West 364 419 40,000  Level Kansas City Center
03:02PM 38.6847 -95.2406 270° West 364 419 40,000  Level Kansas City Center
03:03PM 38.6853 -95.3656 270° West 364 419 40,000  Level Kansas City Center
03:04PM 38.6844 -95.5114 270° West 366 421 40,000  Level Kansas City Center
03:05PM 38.6839 -95.6347 270° West 363 418 40,000  Level Kansas City Center
03:06PM 38.6842 -95.7586 270° West 363 418 40,000  Level Kansas City Center
03:07PM 38.6844 -95.9058 270° West 367 422 40,000  Level Kansas City Center
03:08PM 38.6833 -96.0292 269° West 363 418 40,000  Level Kansas City Center
03:09PM 38.6822 -96.1719 269° West 359 413 40,000  Level Kansas City Center
03:10PM 38.6806 -96.2953 269° West 360 414 40,000  Level Kansas City Center
03:11PM 38.6783 -96.4383 269° West 358 412 40,000  Level Kansas City Center
03:12PM 38.6781 -96.5611 270° West 359 413 40,000  Level Kansas City Center
03:13PM 38.6767 -96.6836 269° West 360 414 40,000  Level Kansas City Center
03:14PM 38.6750 -96.8275 269° West 359 413 40,000  Level Kansas City Center
03:15PM 38.6722 -96.9561 268° West 361 415 40,000  Level Kansas City Center
03:17PM 38.6706 -97.0836 269° West 360 414 40,000  Level Kansas City Center
03:18PM 38.6686 -97.2139 269° West 357 411 40,000  Level Kansas City Center
03:19PM 38.6661 -97.3378 269° West 359 413 40,000  Level Kansas City Center
03:20PM 38.6642 -97.4653 269° West 360 414 40,000  Level Kansas City Center
03:21PM 38.6614 -97.5928 268° West 361 415 40,000  Level Kansas City Center
03:22PM 38.6583 -97.7464 269° West 361 415 40,000  Level Kansas City Center
03:23PM 38.6553 -97.8742 268° West 361 415 40,000  Level Kansas City Center
03:24PM 38.6528 -98.0028 269° West 363 418 40,000  Level Kansas City Center
03:25PM 38.6492 -98.1303 268° West 362 417 40,000  Level Kansas City Center
03:26PM 38.6464 -98.2581 268° West 361 415 40,000  Level Kansas City Center
03:27PM 38.6428 -98.3856 268° West 360 414 40,000  Level Kansas City Center
03:28PM 38.6394 -98.5406 268° West 364 419 40,000  Level Kansas City Center
03:29PM 38.6350 -98.6692 268° West 364 419 40,000  Level Kansas City Center
03:30PM 38.6314 -98.7978 268° West 364 419 40,000  Level Kansas City Center
03:31PM 38.6267 -98.9264 267° West 364 419 40,000  Level Kansas City Center
03:32PM 38.6233 -99.0564 268° West 366 421 40,000  Level Kansas City Center
03:33PM 38.6203 -99.1858 268° West 365 420 40,000  Level Kansas City Center
03:34PM 38.6139 -99.3144 266° West 364 419 40,000  Level Kansas City Center
03:35PM 38.6108 -99.4433 268° West 364 419 40,000  Level Kansas City Center
03:36PM 38.6042 -99.6003 267° West 364 419 40,000  Level Kansas City Center
03:37PM 38.6014 -99.7225 268° West 362 417 40,000  Level Kansas City Center
03:38PM 38.5947 -99.8633 267° West 359 413 40,000  Level Kansas City Center
03:39PM 38.5917 -99.9239 266° West 357 411 40,000  Level Denver Center
03:40PM 38.5867 -100.0664 267° West 359 413 40,000  Level Denver Center
03:41PM 38.5819 -100.1856 267° West 355 409 40,000  Level Denver Center
03:42PM 38.5767 -100.3072 267° West 358 412 40,000  Level Denver Center
03:43PM 38.5703 -100.4478 267° West 356 410 40,000  Level Denver Center
03:44PM 38.5647 -100.5681 267° West 355 409 40,000  Level Denver Center
03:45PM 38.5583 -100.7092 267° West 357 411 40,000  Level Denver Center
03:46PM 38.5508 -100.8683 267° West 354 407 40,000  Level Denver Center
03:47PM 38.5458 -100.9869 267° West 352 405 40,000  Level Denver Center
03:48PM 38.5389 -101.1069 266° West 353 406 40,000  Level Denver Center
03:49PM 38.5325 -101.2464 267° West 354 407 40,000  Level Denver Center
03:50PM 38.5267 -101.3656 266° West 353 406 40,000  Level Denver Center
03:51PM 38.5189 -101.5058 266° West 355 409 40,000  Level Denver Center
03:52PM 38.5125 -101.6253 266° West 354 407 40,000  Level Denver Center
03:53PM 38.5047 -101.7653 266° West 354 407 40,000  Level Denver Center
03:54PM 38.4981 -101.8864 266° West 358 412 40,000  Level Denver Center
03:55PM 38.4900 -102.0272 266° West 357 411 40,000  Level Denver Center
03:56PM 38.4825 -102.1481 266° West 359 413 40,000  Level Denver Center
03:57PM 38.4736 -102.2889 265° West 357 411 40,000  Level Denver Center
03:58PM 38.4672 -102.4097 266° West 358 412 40,000  Level Denver Center
03:59PM 38.4725 -102.5511 273° West 360 414 40,000  Level Denver Center
04:01PM 38.4756 -102.6728 272° West 359 413 40,000  Level Denver Center
04:02PM 38.4794 -102.8150 272° West 358 412 40,000  Level Denver Center
04:03PM 38.4831 -102.9375 272° West 361 415 40,000  Level Denver Center
04:04PM 38.4858 -103.0597 272° West 361 415 40,000  Level Denver Center
04:05PM 38.4894 -103.2028 272° West 361 415 40,000  Level Denver Center
04:06PM 38.4931 -103.3253 272° West 362 417 40,000  Level Denver Center
04:07PM 38.4961 -103.4681 272° West 364 419 40,000  Level Denver Center
04:08PM 38.4994 -103.5936 272° West 371 427 40,000  Level Denver Center
04:09PM 38.5025 -103.7406 272° West 374 430 40,000  Level Denver Center
04:10PM 38.5042 -103.8667 271° West 372 428 40,000 -360 Level Denver Center
04:11PM 38.5064 -104.0128 271° West 370 426 39,300 -780 Descending Denver Center
04:12PM 38.5097 -104.1303 272° West 360 414 38,400 -960 Descending Denver Center
04:13PM 38.5111 -104.2631 271° West 367 422 37,400 -1,020 Descending Denver Center
04:14PM 38.5133 -104.4211 271° West 375 432 36,200 -1,380 Descending Denver Center
04:15PM 38.5158 -104.5650 271° West 349 402 34,400 -1,080 Descending Denver Center
04:16PM 38.5169 -104.6839 271° West 337 388 34,000 -240 Descending Denver Center
04:17PM 38.5178 -104.8147 271° West 360 414 34,000  Level Denver Center
04:18PM 38.5197 -104.9492 271° West 372 428 34,000  Level Denver Center
04:19PM 38.5203 -105.0856 270° West 378 435 34,000  Level Denver Center
04:20PM 38.5225 -105.2206 271° West 377 434 34,000  Level Denver Center
04:21PM 38.5228 -105.3572 270° West 382 440 34,000  Level Denver Center
04:22PM 38.5233 -105.5153 270° West 380 437 34,000  Level Denver Center
04:23PM 38.5242 -105.6511 270° West 380 437 34,000 -300 Level Denver Center
04:24PM 38.5247 -105.7856 270° West 376 433 33,500 -1,320 Descending Denver Center
04:26PM 38.5250 -106.0475 270° West 368 423 30,000 -1,800 Descending Denver Center
04:28PM 38.5247 -106.1703 270° West 373 429 28,100 -1,560 Descending Denver Center
04:29PM 38.5242 -106.3033 270° West 373 429 26,800 -1,620 Descending Denver Center
04:30PM 38.5239 -106.4403 270° West 383 441 24,800 -1,980 Descending Denver Center
04:31PM 38.5231 -106.5797 270° West 389 448 22,800 -1,800 Descending Denver Center
04:32PM 38.5217 -106.7433 269° West 385 443 21,200 -900 Descending Denver Center
04:33PM 38.5208 -106.8856 270° West 394 453 21,000 -420 Descending Denver Center
04:34PM 38.5197 -107.0228 269° West 390 449 20,400 -1,320 Descending Denver Center
04:35PM 38.5186 -107.1531 269° West 374 430 18,400 -1,860 Descending Denver Center
04:36PM 38.5169 -107.2875 269° West 364 419 16,600 -1,200 Descending Denver Center
04:37PM 38.5164 -107.4100 270° West 361 415 16,000 -1,260 Descending Denver Center
04:38PM 38.5136 -107.5331 268° West 338 389 14,100 -1,860 Descending Denver Center